Time;durP1;ratioP1;P1;durP2;ratioP2;P2;SDS_P1;SDS_P2;PMS_P1;PMS_P2;Temp;Humidity;BMP_temperature;BMP_pressure;BME280_temperature;BME280_humidity;BME280_pressure;Samples;Min_cycle;Max_cycle;Signal;HPM_P1;HPM_P2
2022/09/15 00:02:26;;;;;;;2.93;2.70;;;;;;;13.80;91.65;99235.00;5054515;28;20275;-77
2022/09/15 00:04:52;;;;;;;4.90;3.17;;;;;;;13.82;91.09;99262.84;5054671;28;20287;-77
2022/09/15 00:07:19;;;;;;;9.17;6.87;;;;;;;13.60;93.39;99222.91;5054763;28;20210;-76
2022/09/15 00:09:45;;;;;;;8.70;5.20;;;;;;;13.61;93.34;99211.50;5054617;28;20233;-77
2022/09/15 00:12:12;;;;;;;3.10;2.80;;;;;;;13.64;92.62;99221.84;5054612;28;20478;-77
2022/09/15 00:14:38;;;;;;;9.53;7.33;;;;;;;13.62;93.60;99210.56;5054410;28;20371;-76
2022/09/15 00:17:05;;;;;;;6.30;5.50;;;;;;;13.67;93.31;99209.38;5054209;28;20740;-77
2022/09/15 00:19:32;;;;;;;5.13;4.60;;;;;;;13.74;92.92;99216.97;5054739;28;20259;-77
2022/09/15 00:21:59;;;;;;;6.73;6.07;;;;;;;13.68;93.04;99218.97;5053349;28;20209;-77
2022/09/15 00:24:25;;;;;;;6.23;5.53;;;;;;;13.67;92.40;99232.16;5054104;28;20237;-76
2022/09/15 00:26:52;;;;;;;8.50;6.67;;;;;;;13.70;91.80;99242.50;5046553;28;20651;-77
2022/09/15 00:29:18;;;;;;;5.63;4.13;;;;;;;13.72;90.97;99261.63;5054011;28;20281;-77
2022/09/15 00:31:44;;;;;;;6.50;5.90;;;;;;;13.70;91.44;99263.47;5053950;28;20209;-77
2022/09/15 00:34:12;;;;;;;5.63;4.30;;;;;;;13.69;90.84;99288.84;5054304;28;20276;-77
2022/09/15 00:36:40;;;;;;;8.60;7.80;;;;;;;13.49;92.65;99265.41;5053998;28;20255;-77
2022/09/15 00:39:06;;;;;;;7.97;7.23;;;;;;;13.57;92.90;99228.31;5054110;28;20213;-77
2022/09/15 00:41:33;;;;;;;10.23;9.27;;;;;;;13.55;93.43;99219.69;5053939;28;20743;-76
2022/09/15 00:44:01;;;;;;;8.93;7.13;;;;;;;13.57;92.71;99229.16;5053888;28;20229;-77
2022/09/15 00:46:30;;;;;;;8.20;6.73;;;;;;;13.58;91.92;99251.00;5053881;28;20201;-77
2022/09/15 00:49:01;;;;;;;7.50;6.87;;;;;;;13.61;91.63;99275.25;5054011;28;20222;-77
2022/09/15 00:51:36;;;;;;;8.80;7.07;;;;;;;13.61;90.97;99298.84;5053831;28;20736;-77
2022/09/15 00:54:08;;;;;;;8.27;7.57;;;;;;;13.60;91.31;99288.47;5053723;28;20223;-77
2022/09/15 00:56:37;;;;;;;8.93;7.37;;;;;;;13.56;91.53;99282.53;5053264;28;20721;-77
2022/09/15 00:59:09;;;;;;;11.53;8.77;;;;;;;13.61;91.15;99287.53;5053881;28;20201;-77
2022/09/15 01:01:36;;;;;;;7.93;6.70;;;;;;;13.60;91.27;99283.22;5053904;28;20194;-77
2022/09/15 01:04:02;;;;;;;8.97;7.70;;;;;;;13.51;91.79;99284.53;5053525;28;20785;-77
2022/09/15 01:06:33;;;;;;;8.77;7.97;;;;;;;13.55;92.07;99266.88;5053511;28;20209;-77
2022/09/15 01:09:07;;;;;;;8.83;7.83;;;;;;;13.54;91.72;99262.53;5053492;28;20640;-76
2022/09/15 01:11:34;;;;;;;13.03;9.13;;;;;;;13.43;92.46;99248.19;5053417;28;20746;-77
2022/09/15 01:14:01;;;;;;;10.67;9.50;;;;;;;13.46;92.41;99240.19;5053589;28;20272;-77
2022/09/15 01:16:40;;;;;;;10.13;9.13;;;;;;;13.47;92.26;99241.03;5053272;28;20213;-76
2022/09/15 01:19:25;;;;;;;10.77;9.77;;;;;;;13.51;91.79;99259.13;5053336;28;20724;-77
2022/09/15 01:21:59;;;;;;;10.17;8.83;;;;;;;13.53;91.52;99269.56;5053141;28;20222;-77
2022/09/15 01:24:43;;;;;;;10.00;8.50;;;;;;;13.55;91.96;99269.50;5053134;28;20788;-77
2022/09/15 01:27:35;;;;;;;8.47;7.67;;;;;;;13.54;91.25;99273.88;5048150;28;20202;-77
2022/09/15 01:30:06;;;;;;;10.03;9.17;;;;;;;13.51;91.50;99281.91;5032883;28;20710;-77
2022/09/15 01:35:36;;;;;;;14.57;13.23;;;;;;;13.29;94.18;99216.56;5032846;28;20227;-77
2022/09/15 01:38:08;;;;;;;12.67;11.47;;;;;;;13.37;93.41;99221.44;5033147;28;20270;-77
2022/09/15 01:40:41;;;;;;;10.37;9.47;;;;;;;13.36;92.96;99231.09;5033054;28;20213;-77
2022/09/15 01:43:09;;;;;;;13.23;11.80;;;;;;;13.40;92.87;99242.25;5033252;28;20213;-77
2022/09/15 01:45:42;;;;;;;11.83;10.83;;;;;;;13.39;92.63;99264.16;5032643;28;20261;-77
2022/09/15 01:48:09;;;;;;;13.37;12.03;;;;;;;13.36;92.09;99270.41;5032905;28;20263;-77
2022/09/15 01:50:39;;;;;;;13.53;12.33;;;;;;;13.38;92.27;99270.31;5032826;28;20436;-77
2022/09/15 01:53:12;;;;;;;12.93;11.77;;;;;;;13.33;92.93;99264.47;5032681;28;20216;-77
2022/09/15 01:55:42;;;;;;;12.27;11.07;;;;;;;13.33;92.78;99264.47;5042493;28;20648;-77
2022/09/15 01:58:09;;;;;;;14.03;12.70;;;;;;;13.35;92.39;99263.47;5052792;28;20208;-77
2022/09/15 02:00:41;;;;;;;11.20;10.20;;;;;;;13.39;92.05;99272.03;5052888;28;20225;-77
2022/09/15 02:03:17;;;;;;;10.60;9.63;;;;;;;13.32;91.48;99281.97;5052450;28;20205;-77
2022/09/15 02:05:50;;;;;;;12.37;11.10;;;;;;;13.21;93.59;99232.66;5052515;28;20232;-77
2022/09/15 02:08:26;;;;;;;14.50;13.03;;;;;;;13.18;94.02;99209.25;5052672;28;20254;-77
2022/09/15 02:11:00;;;;;;;12.23;11.20;;;;;;;13.14;94.09;99226.03;5052385;28;20705;-77
2022/09/15 02:13:36;;;;;;;15.70;13.43;;;;;;;13.00;95.44;99190.03;5052277;28;20678;-77
2022/09/15 02:16:09;;;;;;;16.63;13.17;;;;;;;13.09;95.47;99188.72;5052478;28;20197;-77
2022/09/15 02:18:44;;;;;;;16.20;14.10;;;;;;;13.14;94.60;99199.84;5052255;28;20600;-77
2022/09/15 02:21:17;;;;;;;13.90;12.47;;;;;;;13.10;95.32;99191.28;5052343;28;20204;-77
2022/09/15 02:23:50;;;;;;;17.17;15.40;;;;;;;13.19;94.96;99197.81;5052283;28;20220;-77
2022/09/15 02:26:22;;;;;;;13.37;12.03;;;;;;;13.22;94.42;99208.16;5052370;28;20239;-77
2022/09/15 02:28:50;;;;;;;15.60;14.20;;;;;;;13.11;94.85;99219.16;5044111;28;20307;-77
2022/09/15 02:31:21;;;;;;;20.23;14.63;;;;;;;13.02;95.23;99222.25;5052119;28;20626;-77
2022/09/15 02:33:53;;;;;;;17.23;15.43;;;;;;;12.88;96.90;99180.13;5051999;28;20233;-77
2022/09/15 02:36:21;;;;;;;16.03;14.33;;;;;;;12.96;97.21;99175.38;5052487;28;20219;-77
2022/09/15 02:38:52;;;;;;;16.80;15.27;;;;;;;13.02;95.91;99200.41;5052015;28;20208;-77
2022/09/15 02:41:19;;;;;;;17.30;15.50;;;;;;;13.08;95.27;99218.44;5052564;28;20262;-77
2022/09/15 02:43:46;;;;;;;18.17;16.27;;;;;;;12.99;95.76;99224.16;5052564;28;20204;-77
2022/09/15 02:46:12;;;;;;;18.37;16.57;;;;;;;13.06;95.42;99223.78;5051384;28;20230;-77
2022/09/15 02:48:40;;;;;;;18.27;16.00;;;;;;;12.95;95.08;99233.94;5052103;28;20210;-77
2022/09/15 02:51:06;;;;;;;20.73;17.53;;;;;;;12.81;96.51;99218.03;5052231;28;20233;-77
2022/09/15 02:53:33;;;;;;;20.73;17.70;;;;;;;12.58;97.97;99204.25;5052051;28;20205;-77
2022/09/15 02:55:59;;;;;;;18.40;16.47;;;;;;;12.66;97.85;99185.56;5051845;28;20732;-77
2022/09/15 02:58:25;;;;;;;18.20;16.23;;;;;;;12.76;97.41;99185.97;5052150;28;20208;-77
2022/09/15 03:00:53;;;;;;;18.07;16.27;;;;;;;12.63;97.92;99191.81;5052453;28;20246;-77
2022/09/15 03:03:20;;;;;;;18.70;16.50;;;;;;;12.67;97.55;99189.88;5051912;28;20558;-77
2022/09/15 03:05:48;;;;;;;20.13;17.93;;;;;;;12.29;99.78;99175.06;5051755;28;20282;-77
2022/09/15 03:08:14;;;;;;;26.93;16.30;;;;;;;12.52;99.51;99165.28;5052289;28;20211;-77
2022/09/15 03:10:41;;;;;;;17.70;16.00;;;;;;;12.49;99.73;99162.81;5052300;28;20228;-77
2022/09/15 03:13:07;;;;;;;20.57;16.60;;;;;;;12.42;99.49;99171.88;5052292;28;20209;-77
2022/09/15 03:15:34;;;;;;;18.57;16.50;;;;;;;12.34;100.00;99168.75;5051914;28;20232;-77
2022/09/15 03:18:01;;;;;;;18.43;16.33;;;;;;;12.42;99.43;99175.31;5051821;28;20206;-77
2022/09/15 03:20:29;;;;;;;19.00;16.80;;;;;;;12.20;100.00;99178.09;5051552;28;20205;-77
2022/09/15 03:22:56;;;;;;;25.03;18.30;;;;;;;12.09;100.00;99144.59;5040644;28;20201;-77
2022/09/15 03:25:25;;;;;;;24.10;19.40;;;;;;;12.22;100.00;99150.09;5047534;28;20224;-77
2022/09/15 03:27:52;;;;;;;25.10;18.47;;;;;;;12.25;100.00;99170.03;5049069;28;20201;-77
2022/09/15 03:30:18;;;;;;;18.67;16.87;;;;;;;12.23;100.00;99164.00;5040432;28;20262;-77
2022/09/15 03:32:45;;;;;;;21.17;17.70;;;;;;;12.02;100.00;99165.88;5039018;28;20672;-77
2022/09/15 03:35:11;;;;;;;20.50;18.17;;;;;;;12.15;100.00;99160.91;5042244;28;20228;-77
2022/09/15 03:37:38;;;;;;;23.50;19.27;;;;;;;12.18;100.00;99182.56;5040461;28;20208;-77
2022/09/15 03:40:09;;;;;;;21.17;19.10;;;;;;;12.18;100.00;99177.31;5041417;28;20724;-77
2022/09/15 03:42:35;;;;;;;21.33;18.83;;;;;;;12.29;100.00;99188.16;5042668;28;20209;-77
2022/09/15 03:45:02;;;;;;;21.40;17.90;;;;;;;12.34;100.00;99200.16;5040452;28;20711;-77
2022/09/15 03:47:29;;;;;;;22.30;18.60;;;;;;;12.25;100.00;99201.41;5040871;28;20217;-77
2022/09/15 03:49:55;;;;;;;23.43;19.17;;;;;;;12.37;100.00;99220.94;5042336;28;20278;-76
2022/09/15 03:52:21;;;;;;;23.87;18.33;;;;;;;12.41;99.74;99230.38;5040915;28;20632;-77
2022/09/15 03:54:48;;;;;;;20.60;18.63;;;;;;;12.43;99.21;99234.63;5042573;28;20692;-77
2022/09/15 03:57:16;;;;;;;20.93;18.70;;;;;;;12.36;99.03;99240.19;5051309;28;20538;-77
2022/09/15 03:59:43;;;;;;;18.70;16.93;;;;;;;12.47;98.92;99237.94;5047882;28;20196;-77
2022/09/15 04:02:09;;;;;;;21.67;18.53;;;;;;;12.55;98.36;99256.75;5045167;28;20619;-77
2022/09/15 04:04:36;;;;;;;18.00;16.20;;;;;;;12.61;97.99;99271.34;5043984;28;20270;-77
2022/09/15 04:07:02;;;;;;;20.17;18.20;;;;;;;12.64;97.33;99277.25;5045111;28;20670;-77
2022/09/15 04:09:29;;;;;;;25.67;17.77;;;;;;;12.65;97.64;99284.22;5048238;28;20283;-77
2022/09/15 04:11:55;;;;;;;22.10;17.40;;;;;;;12.69;97.63;99279.69;5052258;28;20224;-77
2022/09/15 04:14:23;;;;;;;19.43;17.40;;;;;;;12.74;97.10;99289.94;5055323;28;20228;-77
2022/09/15 04:16:50;;;;;;;20.17;17.10;;;;;;;12.79;97.53;99288.81;5054907;28;20739;-77
2022/09/15 04:19:16;;;;;;;19.50;16.87;;;;;;;12.86;97.03;99286.75;5055171;28;20209;-77
2022/09/15 04:21:44;;;;;;;18.17;16.30;;;;;;;12.86;97.30;99284.13;5054392;28;20633;-77
2022/09/15 04:24:10;;;;;;;18.10;16.10;;;;;;;12.89;97.13;99284.00;5055092;28;20313;-77
2022/09/15 04:26:37;;;;;;;19.87;16.77;;;;;;;12.95;96.77;99288.09;5054453;28;20213;-77
2022/09/15 04:29:05;;;;;;;21.23;17.53;;;;;;;12.98;97.06;99307.09;5052924;28;20216;-77
2022/09/15 04:31:33;;;;;;;18.00;16.30;;;;;;;13.02;96.90;99300.84;5052670;28;20574;-77
2022/09/15 04:34:00;;;;;;;19.93;17.70;;;;;;;12.97;96.16;99304.59;5041997;28;20704;-76
2022/09/15 04:36:28;;;;;;;18.27;16.07;;;;;;;12.97;96.53;99299.34;5044169;28;20247;-77
2022/09/15 04:38:55;;;;;;;17.77;15.97;;;;;;;12.93;96.79;99306.50;5052810;28;20252;-77
2022/09/15 04:41:22;;;;;;;21.87;17.60;;;;;;;12.78;97.14;99294.09;5054291;28;20258;-77
2022/09/15 04:43:48;;;;;;;22.20;16.20;;;;;;;12.88;97.32;99290.13;5054121;28;20281;-77
2022/09/15 04:46:15;;;;;;;21.63;18.33;;;;;;;12.87;97.44;99284.06;5051443;28;20209;-77
2022/09/15 04:48:44;;;;;;;18.70;16.73;;;;;;;12.94;97.66;99276.75;5044679;28;20207;-77
2022/09/15 04:51:14;;;;;;;18.90;17.10;;;;;;;13.01;97.04;99283.41;5042733;28;20221;-77
2022/09/15 04:53:41;;;;;;;19.43;17.30;;;;;;;13.02;96.78;99292.09;5042337;28;20202;-77
2022/09/15 04:56:10;;;;;;;19.17;16.57;;;;;;;13.05;96.47;99298.06;5033537;28;20206;-77
2022/09/15 04:58:38;;;;;;;21.07;17.07;;;;;;;13.14;96.21;99314.25;5036459;28;20248;-77
2022/09/15 05:01:09;;;;;;;18.50;15.97;;;;;;;13.08;95.29;99331.97;5053273;28;20204;-77
2022/09/15 05:03:36;;;;;;;21.27;17.33;;;;;;;13.11;95.58;99336.22;5053401;28;20678;-76
2022/09/15 05:06:06;;;;;;;19.50;17.27;;;;;;;13.08;94.85;99344.22;5053088;28;20217;-77
2022/09/15 05:08:32;;;;;;;17.07;15.40;;;;;;;12.93;95.42;99339.69;5053133;28;20212;-77
2022/09/15 05:11:00;;;;;;;16.40;14.77;;;;;;;12.78;96.56;99304.59;5053025;28;20651;-76
2022/09/15 05:13:26;;;;;;;18.00;16.20;;;;;;;12.85;96.67;99308.63;5053319;28;20642;-76
2022/09/15 05:15:53;;;;;;;17.33;15.63;;;;;;;12.89;96.61;99303.16;5053084;28;20212;-76
2022/09/15 05:18:19;;;;;;;19.73;16.70;;;;;;;12.88;96.86;99304.09;5052955;28;20206;-77
2022/09/15 05:20:46;;;;;;;18.87;16.87;;;;;;;12.76;97.89;99280.22;5053379;28;20204;-77
2022/09/15 05:23:13;;;;;;;20.80;17.33;;;;;;;12.72;98.62;99279.53;5052822;28;20258;-77
2022/09/15 05:25:40;;;;;;;20.97;17.60;;;;;;;12.80;98.46;99273.94;5053056;28;20225;-77
2022/09/15 05:28:06;;;;;;;20.67;17.33;;;;;;;12.80;99.22;99266.91;5052634;28;20641;-77
2022/09/15 05:30:33;;;;;;;20.03;17.93;;;;;;;12.93;98.49;99277.69;5052776;28;20228;-77
2022/09/15 05:32:59;;;;;;;23.17;19.40;;;;;;;12.96;98.10;99288.00;5052685;28;20623;-77
2022/09/15 05:35:25;;;;;;;19.47;16.97;;;;;;;12.99;98.31;99285.25;5053070;28;20258;-77
2022/09/15 05:37:52;;;;;;;23.00;17.87;;;;;;;12.88;98.85;99283.16;5052944;28;20625;-77
2022/09/15 05:40:20;;;;;;;20.03;17.37;;;;;;;13.00;98.90;99276.47;5053317;28;20203;-77
2022/09/15 05:42:47;;;;;;;19.23;17.37;;;;;;;13.04;97.96;99298.13;5053406;28;20227;-77
2022/09/15 05:45:13;;;;;;;20.50;17.90;;;;;;;13.04;98.99;99290.25;5052801;28;20290;-77
2022/09/15 05:47:40;;;;;;;23.53;17.73;;;;;;;12.96;99.52;99274.06;5053910;28;20213;-76
2022/09/15 05:50:07;;;;;;;20.10;17.40;;;;;;;12.99;99.59;99273.94;5053295;28;20227;-76
2022/09/15 05:52:33;;;;;;;23.50;18.90;;;;;;;12.78;100.00;99254.81;5053646;28;20217;-77
2022/09/15 05:54:59;;;;;;;22.33;18.00;;;;;;;12.91;100.00;99238.47;5053672;28;20602;-77
2022/09/15 05:57:27;;;;;;;22.30;18.97;;;;;;;13.00;100.00;99246.78;5053564;28;20203;-76
2022/09/15 05:59:53;;;;;;;20.20;18.20;;;;;;;12.95;100.00;99252.25;5053607;28;20205;-77
2022/09/15 06:02:20;;;;;;;24.10;19.87;;;;;;;12.88;100.00;99249.09;5053198;28;20258;-76
2022/09/15 06:04:46;;;;;;;20.37;18.13;;;;;;;12.86;100.00;99261.41;5052857;28;20229;-76
2022/09/15 06:07:13;;;;;;;24.50;19.00;;;;;;;12.90;100.00;99243.75;5052385;28;20704;-79
2022/09/15 06:09:39;;;;;;;25.27;18.77;;;;;;;12.91;100.00;99243.69;5058924;28;20209;-79
2022/09/15 06:12:06;;;;;;;21.60;17.17;;;;;;;13.06;100.00;99247.38;5056249;28;20256;-79
2022/09/15 06:14:34;;;;;;;25.30;18.20;;;;;;;13.15;100.00;99256.53;5057465;28;20641;-79
2022/09/15 06:17:00;;;;;;;20.63;16.83;;;;;;;13.29;100.00;99269.84;5060638;28;20236;-80
2022/09/15 06:19:26;;;;;;;19.40;17.10;;;;;;;13.39;100.00;99295.63;5061971;28;20619;-80
2022/09/15 06:21:53;;;;;;;22.17;17.10;;;;;;;13.37;100.00;99303.53;5060588;28;20207;-79
2022/09/15 06:24:20;;;;;;;18.73;15.37;;;;;;;13.45;99.66;99316.28;5062046;28;20228;-80
2022/09/15 06:26:47;;;;;;;18.40;16.47;;;;;;;13.60;99.78;99330.44;5061946;28;20217;-79
2022/09/15 06:29:13;;;;;;;24.50;16.63;;;;;;;13.68;98.46;99341.38;5063415;28;20273;-79
2022/09/15 06:31:41;;;;;;;17.27;15.47;;;;;;;13.74;98.15;99366.47;5061290;28;20221;-81
2022/09/15 06:34:08;;;;;;;17.63;15.40;;;;;;;13.75;97.39;99365.53;5056780;28;20225;-77
2022/09/15 06:36:36;;;;;;;18.00;16.13;;;;;;;13.62;97.10;99381.84;5051527;28;20500;-79
2022/09/15 06:39:03;;;;;;;17.47;15.70;;;;;;;13.53;98.52;99368.34;5043048;28;20211;-77
2022/09/15 06:41:30;;;;;;;16.73;15.13;;;;;;;13.69;98.04;99359.63;5042907;28;20193;-78
2022/09/15 06:43:57;;;;;;;18.43;16.50;;;;;;;13.56;98.34;99360.31;5048982;28;20228;-77
2022/09/15 06:46:25;;;;;;;17.33;15.53;;;;;;;13.55;98.63;99348.97;5055140;28;20261;-77
2022/09/15 06:48:53;;;;;;;16.97;15.10;;;;;;;13.62;98.77;99347.78;5055294;28;20258;-77
2022/09/15 06:51:21;;;;;;;17.43;15.83;;;;;;;13.62;98.13;99357.41;5054420;28;20239;-77
2022/09/15 06:53:48;;;;;;;18.47;16.60;;;;;;;13.62;98.73;99353.03;5053824;28;20282;-77
2022/09/15 06:56:17;;;;;;;17.10;15.30;;;;;;;13.58;98.79;99366.38;5053504;28;20204;-77
2022/09/15 06:58:45;;;;;;;19.53;15.10;;;;;;;13.64;99.06;99351.16;5054736;28;20200;-77
2022/09/15 07:01:13;;;;;;;16.73;14.97;;;;;;;13.51;99.41;99350.06;5054867;28;20207;-77
2022/09/15 07:03:42;;;;;;;16.60;14.97;;;;;;;13.57;99.18;99348.91;5054805;28;20209;-77
2022/09/15 07:06:11;;;;;;;17.77;15.97;;;;;;;13.63;99.27;99356.47;5055388;28;20213;-77
2022/09/15 07:08:38;;;;;;;16.30;14.57;;;;;;;13.51;98.99;99365.78;5054518;28;20208;-76
2022/09/15 07:11:05;;;;;;;18.33;16.63;;;;;;;13.38;100.00;99341.97;5053922;28;20281;-77
2022/09/15 07:13:32;;;;;;;16.83;15.10;;;;;;;13.40;100.00;99336.63;5054709;28;20405;-77
2022/09/15 07:16:00;;;;;;;18.33;16.53;;;;;;;13.35;100.00;99334.22;5053827;28;20209;-77
2022/09/15 07:18:27;;;;;;;18.07;16.23;;;;;;;13.44;100.00;99325.09;5053894;28;20223;-77
2022/09/15 07:20:58;;;;;;;17.70;16.10;;;;;;;13.39;100.00;99332.31;5054314;28;20239;-77
2022/09/15 07:23:26;;;;;;;15.83;14.20;;;;;;;13.41;100.00;99328.69;5053465;28;20251;-76
2022/09/15 07:25:53;;;;;;;15.10;13.73;;;;;;;13.46;100.00;99329.31;5053321;28;20239;-77
2022/09/15 07:28:19;;;;;;;15.03;13.63;;;;;;;13.44;100.00;99333.78;5053128;28;20269;-77
2022/09/15 07:30:50;;;;;;;15.73;14.07;;;;;;;13.43;100.00;99332.06;5053859;28;20644;-79
2022/09/15 07:33:17;;;;;;;13.67;12.57;;;;;;;13.45;100.00;99347.75;5059030;28;20703;-77
2022/09/15 07:35:44;;;;;;;12.97;11.87;;;;;;;13.53;100.00;99352.63;5056720;28;20585;-78
2022/09/15 07:38:11;;;;;;;13.13;12.03;;;;;;;13.43;100.00;99360.91;5045048;28;20213;-77
2022/09/15 07:40:39;;;;;;;13.13;11.80;;;;;;;13.59;100.00;99355.78;5037736;28;20209;-77
2022/09/15 07:43:05;;;;;;;13.90;12.50;;;;;;;13.69;100.00;99361.41;5037530;28;20215;-77
2022/09/15 07:45:34;;;;;;;14.70;13.10;;;;;;;13.75;99.49;99389.13;5037312;28;20657;-77
2022/09/15 07:48:00;;;;;;;13.60;12.40;;;;;;;13.90;99.00;99414.63;5044050;28;20201;-77
2022/09/15 07:50:26;;;;;;;14.70;12.23;;;;;;;13.95;97.95;99424.88;5056959;28;20632;-77
2022/09/15 07:52:55;;;;;;;13.13;11.70;;;;;;;13.90;97.84;99428.56;5047964;28;20270;-77
2022/09/15 07:55:21;;;;;;;14.87;13.13;;;;;;;13.96;98.33;99429.22;5045451;28;20276;-77
2022/09/15 07:57:56;;;;;;;14.27;11.97;;;;;;;14.05;97.70;99440.09;5045759;28;20247;-78
2022/09/15 08:00:22;;;;;;;11.83;10.63;;;;;;;14.08;96.82;99449.59;5051355;28;20208;-77
2022/09/15 08:02:49;;;;;;;12.47;11.17;;;;;;;14.08;95.81;99470.59;5047480;28;20411;-77
2022/09/15 08:05:16;;;;;;;13.27;10.37;;;;;;;14.08;96.27;99473.22;5047206;28;20221;-77
2022/09/15 08:07:42;;;;;;;11.73;10.63;;;;;;;14.13;95.92;99475.59;5049800;28;20203;-77
2022/09/15 08:10:09;;;;;;;12.43;10.43;;;;;;;14.09;96.18;99472.25;5044778;28;20256;-78
2022/09/15 08:12:36;;;;;;;10.30;9.30;;;;;;;13.99;96.22;99469.25;5045409;28;20217;-77
2022/09/15 08:15:05;;;;;;;10.30;9.30;;;;;;;14.09;96.48;99470.50;5046714;28;20224;-77
2022/09/15 08:17:31;;;;;;;10.63;9.63;;;;;;;14.23;95.96;99466.34;5045257;28;20595;-77
2022/09/15 08:19:57;;;;;;;9.60;8.77;;;;;;;14.39;95.37;99492.66;5044773;28;20724;-77
2022/09/15 08:22:24;;;;;;;9.07;8.13;;;;;;;14.44;94.22;99509.91;5046783;28;20193;-77
2022/09/15 08:24:50;;;;;;;8.67;7.97;;;;;;;14.37;94.09;99531.28;5044338;28;20222;-77
2022/09/15 08:27:17;;;;;;;8.23;7.43;;;;;;;14.52;94.20;99522.66;5045011;28;20202;-77
2022/09/15 08:29:43;;;;;;;8.13;7.10;;;;;;;14.65;93.09;99542.16;5052584;28;20208;-77
2022/09/15 08:32:11;;;;;;;7.33;6.53;;;;;;;14.60;91.78;99574.84;5051485;28;20226;-77
2022/09/15 08:34:37;;;;;;;9.10;7.30;;;;;;;14.59;91.48;99587.13;5046035;28;20226;-77
2022/09/15 08:37:04;;;;;;;7.40;6.30;;;;;;;14.57;90.60;99604.72;5044126;28;20203;-77
2022/09/15 08:39:30;;;;;;;11.03;7.80;;;;;;;14.59;90.42;99626.53;5043644;28;20202;-77
2022/09/15 08:42:00;;;;;;;8.73;7.80;;;;;;;14.41;91.04;99612.47;5043768;28;20251;-77
2022/09/15 08:44:36;;;;;;;7.80;7.00;;;;;;;14.52;91.88;99590.94;5044675;28;20217;-76
2022/09/15 08:47:08;;;;;;;8.67;7.77;;;;;;;14.46;91.71;99589.44;5045499;28;20266;-77
2022/09/15 08:49:43;;;;;;;8.20;7.40;;;;;;;14.56;90.92;99599.50;5045072;28;20198;-76
2022/09/15 08:52:16;;;;;;;9.77;8.90;;;;;;;14.50;89.92;99630.38;5044035;28;20274;-76
2022/09/15 08:54:42;;;;;;;9.63;8.80;;;;;;;14.54;89.86;99646.00;5043675;28;20221;-76
2022/09/15 08:57:14;;;;;;;9.93;8.80;;;;;;;14.50;89.65;99638.28;5044722;28;20255;-77
2022/09/15 08:59:40;;;;;;;8.67;8.00;;;;;;;14.47;89.52;99638.44;5046474;28;20209;-77
2022/09/15 09:02:34;;;;;;;10.90;8.60;;;;;;;14.63;90.01;99633.31;5048071;28;20216;-77
2022/09/15 09:05:10;;;;;;;8.73;7.93;;;;;;;14.79;88.93;99656.22;5047788;28;20627;-75
2022/09/15 09:07:51;;;;;;;7.87;7.07;;;;;;;14.76;87.32;99690.50;5043746;28;20205;-75
2022/09/15 09:10:28;;;;;;;6.10;5.47;;;;;;;14.90;87.58;99695.94;5044300;28;20246;-75
2022/09/15 09:13:10;;;;;;;6.97;6.37;;;;;;;14.95;86.22;99714.13;5043645;28;20226;-75
2022/09/15 09:15:49;;;;;;;7.17;6.37;;;;;;;14.96;85.67;99735.06;5033326;28;20664;-74
2022/09/15 09:18:45;;;;;;;5.83;5.33;;;;;;;15.04;84.21;99768.88;5033485;28;20217;-74
2022/09/15 09:21:21;;;;;;;5.27;4.80;;;;;;;15.00;83.36;99794.44;5033410;28;20206;-74
2022/09/15 09:23:51;;;;;;;6.30;5.80;;;;;;;15.19;85.45;99777.78;5033070;28;20255;-74
2022/09/15 09:26:19;;;;;;;4.90;4.50;;;;;;;15.30;84.20;99783.34;5032899;28;20217;-74
2022/09/15 09:28:49;;;;;;;5.10;4.30;;;;;;;15.43;83.51;99796.78;5036940;28;20259;-74
2022/09/15 09:31:20;;;;;;;6.07;5.07;;;;;;;15.38;82.20;99843.47;5052991;28;20221;-75
2022/09/15 09:33:53;;;;;;;3.97;3.47;;;;;;;15.38;81.72;99849.59;5052874;28;20679;-74
2022/09/15 09:36:21;;;;;;;4.73;3.80;;;;;;;15.47;82.25;99850.94;5052633;28;20213;-75
2022/09/15 09:38:49;;;;;;;4.30;3.93;;;;;;;15.46;80.78;99873.75;5052591;28;20232;-75
2022/09/15 09:41:18;;;;;;;4.97;3.50;;;;;;;15.41;80.96;99878.38;5052956;28;20200;-75
2022/09/15 09:43:47;;;;;;;3.23;2.93;;;;;;;15.43;79.84;99894.94;5052855;28;20233;-74
2022/09/15 09:46:16;;;;;;;2.70;1.53;;;;;;;15.41;77.42;99974.84;5052547;28;20255;-76
2022/09/15 09:48:49;;;;;;;4.70;1.93;;;;;;;15.51;76.60;100010.31;5052555;28;20600;-74
2022/09/15 09:51:35;;;;;;;4.10;1.80;;;;;;;15.38;76.59;100010.03;5052210;28;20229;-76
2022/09/15 09:54:10;;;;;;;2.90;1.67;;;;;;;15.32;77.20;99998.94;5052351;28;20631;-74
2022/09/15 09:56:37;;;;;;;4.20;1.60;;;;;;;15.57;76.93;99973.19;5052413;28;20204;-76
2022/09/15 09:59:03;;;;;;;3.33;1.60;;;;;;;15.57;76.93;99985.50;5052468;28;20209;-74
2022/09/15 10:01:30;;;;;;;2.97;1.57;;;;;;;15.53;76.64;99991.84;5052024;28;20281;-74
2022/09/15 10:04:12;;;;;;;4.60;2.03;;;;;;;15.63;77.58;99943.97;5052128;28;20280;-74
2022/09/15 10:06:41;;;;;;;2.50;1.60;;;;;;;15.69;76.69;99963.88;5048156;28;20490;-74
2022/09/15 10:09:13;;;;;;;5.67;1.40;;;;;;;15.81;75.02;100004.56;5042573;28;20202;-74
2022/09/15 10:11:41;;;;;;;3.17;1.60;;;;;;;15.84;73.02;100054.44;5042650;28;20429;-74
2022/09/15 10:14:18;;;;;;;2.40;1.30;;;;;;;15.80;72.75;100068.66;5042161;28;20222;-74
2022/09/15 10:16:56;;;;;;;4.80;1.90;;;;;;;15.79;72.86;100067.78;5042635;28;20284;-75
2022/09/15 10:19:22;;;;;;;4.37;1.87;;;;;;;15.87;74.20;100046.38;5042976;28;20716;-74
2022/09/15 10:21:50;;;;;;;4.80;1.43;;;;;;;15.89;72.79;100061.16;5042499;28;20198;-74
2022/09/15 10:24:38;;;;;;;4.43;1.90;;;;;;;16.00;73.25;100065.09;5042532;28;20278;-76
2022/09/15 10:27:17;;;;;;;2.60;1.50;;;;;;;15.76;72.51;100081.13;5042569;28;20207;-75
2022/09/15 10:29:44;;;;;;;2.23;1.60;;;;;;;15.80;73.68;100048.47;5047224;28;20265;-76
2022/09/15 10:32:26;;;;;;;1.70;1.60;;;;;;;15.71;73.77;100030.44;5048842;28;20295;-75
2022/09/15 10:35:00;;;;;;;3.83;1.90;;;;;;;15.92;74.74;99980.38;5042222;28;20287;-75
2022/09/15 10:37:32;;;;;;;2.43;1.27;;;;;;;15.97;72.05;100007.31;5043325;28;20265;-76
2022/09/15 10:40:01;;;;;;;3.17;1.40;;;;;;;16.18;72.63;100035.25;5045700;28;20197;-77
2022/09/15 10:42:48;;;;;;;4.27;1.57;;;;;;;16.33;68.68;100099.47;5042626;28;20225;-75
2022/09/15 10:45:24;;;;;;;4.17;1.20;;;;;;;16.61;67.92;100188.59;5042677;28;20218;-76
2022/09/15 10:48:09;;;;;;;3.40;0.90;;;;;;;16.59;65.89;100247.56;5045587;28;20723;-75
2022/09/15 10:50:48;;;;;;;2.57;1.20;;;;;;;16.62;63.14;100355.47;5042443;28;20194;-76
2022/09/15 10:53:34;;;;;;;2.07;0.80;;;;;;;16.75;63.58;100354.00;5042265;28;20633;-75
2022/09/15 10:56:10;;;;;;;4.07;0.60;;;;;;;17.05;61.87;100382.53;5041873;28;20278;-76
2022/09/15 10:58:54;;;;;;;2.73;1.10;;;;;;;16.96;62.54;100418.09;5042551;28;20235;-77
2022/09/15 11:01:47;;;;;;;0.70;0.40;;;;;;;16.78;59.84;100463.72;5042312;28;20193;-75
2022/09/15 11:04:37;;;;;;;3.93;1.43;;;;;;;16.54;59.79;100507.81;5042616;28;20226;-76
2022/09/15 11:07:11;;;;;;;2.03;0.60;;;;;;;16.56;60.43;100471.72;5046193;28;20206;-76
2022/09/15 11:09:42;;;;;;;3.47;0.87;;;;;;;16.70;61.16;100463.19;5051385;28;20219;-77
2022/09/15 11:12:22;;;;;;;4.87;1.10;;;;;;;16.74;63.03;100388.34;5050773;28;20250;-78
2022/09/15 11:15:06;;;;;;;2.50;1.00;;;;;;;16.55;61.18;100380.38;5055737;28;20222;-75
2022/09/15 11:17:49;;;;;;;2.30;0.90;;;;;;;16.47;61.16;100384.25;5052397;28;20664;-75
2022/09/15 11:20:31;;;;;;;4.40;0.90;;;;;;;16.30;61.49;100383.28;5046288;28;20262;-76
2022/09/15 11:23:03;;;;;;;2.30;0.70;;;;;;;16.31;62.74;100350.72;5046099;28;20572;-76
2022/09/15 11:25:34;;;;;;;1.93;0.80;;;;;;;16.26;62.33;100335.13;5046054;28;20214;-75
2022/09/15 11:28:10;;;;;;;1.43;0.70;;;;;;;16.33;61.86;100339.19;5045190;28;20201;-76
2022/09/15 11:30:41;;;;;;;2.60;1.17;;;;;;;16.34;61.24;100355.88;5046449;28;20196;-76
2022/09/15 11:33:18;;;;;;;2.33;0.83;;;;;;;16.38;61.59;100353.03;5045694;28;20237;-75
2022/09/15 11:35:48;;;;;;;3.43;0.97;;;;;;;16.24;61.89;100350.16;5040117;28;20260;-75
2022/09/15 11:38:28;;;;;;;3.33;0.90;;;;;;;16.36;62.04;100341.69;5051107;28;20213;-76